sensor_id;sensor_type;location;lat;lon;timestamp;P1;durP1;ratioP1;P2;durP2;ratioP2
17449;SDS011;8842;51.244;7.102;2022-08-24T00:00:18;12.43;;;11.70;;
17449;SDS011;8842;51.244;7.102;2022-08-24T00:05:24;12.60;;;11.90;;
17449;SDS011;8842;51.244;7.102;2022-08-24T00:10:36;12.30;;;11.60;;
17449;SDS011;8842;51.244;7.102;2022-08-24T00:20:52;12.43;;;11.73;;
17449;SDS011;8842;51.244;7.102;2022-08-24T00:25:57;12.40;;;11.70;;
17449;SDS011;8842;51.244;7.102;2022-08-24T00:31:12;13.30;;;12.23;;
17449;SDS011;8842;51.244;7.102;2022-08-24T00:36:17;12.53;;;11.83;;
17449;SDS011;8842;51.244;7.102;2022-08-24T00:41:29;11.80;;;11.20;;
17449;SDS011;8842;51.244;7.102;2022-08-24T00:46:36;12.58;;;11.83;;
17449;SDS011;8842;51.244;7.102;2022-08-24T00:52:01;12.50;;;11.80;;
17449;SDS011;8842;51.244;7.102;2022-08-24T01:02:11;12.47;;;11.78;;
17449;SDS011;8842;51.244;7.102;2022-08-24T01:07:16;12.50;;;11.80;;
17449;SDS011;8842;51.244;7.102;2022-08-24T01:12:24;12.53;;;11.83;;
17449;SDS011;8842;51.244;7.102;2022-08-24T01:17:36;12.23;;;11.53;;
17449;SDS011;8842;51.244;7.102;2022-08-24T01:23:02;11.53;;;10.93;;
17449;SDS011;8842;51.244;7.102;2022-08-24T01:28:17;12.30;;;11.60;;
17449;SDS011;8842;51.244;7.102;2022-08-24T01:38:34;12.50;;;11.80;;
17449;SDS011;8842;51.244;7.102;2022-08-24T01:43:39;12.47;;;11.77;;
17449;SDS011;8842;51.244;7.102;2022-08-24T01:48:50;12.88;;;12.07;;
17449;SDS011;8842;51.244;7.102;2022-08-24T01:53:55;12.50;;;11.80;;
17449;SDS011;8842;51.244;7.102;2022-08-24T01:59:08;12.63;;;11.93;;
17449;SDS011;8842;51.244;7.102;2022-08-24T02:04:20;12.70;;;12.00;;
17449;SDS011;8842;51.244;7.102;2022-08-24T02:09:25;12.10;;;11.40;;
17449;SDS011;8842;51.244;7.102;2022-08-24T02:14:29;12.37;;;11.67;;
17449;SDS011;8842;51.244;7.102;2022-08-24T02:19:41;12.33;;;11.63;;
17449;SDS011;8842;51.244;7.102;2022-08-24T02:24:45;12.13;;;11.43;;
17449;SDS011;8842;51.244;7.102;2022-08-24T02:29:57;12.30;;;11.60;;
17449;SDS011;8842;51.244;7.102;2022-08-24T02:40:14;12.17;;;11.47;;
17449;SDS011;8842;51.244;7.102;2022-08-24T02:45:19;12.70;;;11.70;;
17449;SDS011;8842;51.244;7.102;2022-08-24T02:50:31;12.43;;;11.73;;
17449;SDS011;8842;51.244;7.102;2022-08-24T03:00:46;12.53;;;11.83;;
17449;SDS011;8842;51.244;7.102;2022-08-24T03:11:09;12.20;;;11.50;;
17449;SDS011;8842;51.244;7.102;2022-08-24T03:16:21;12.20;;;11.50;;
17449;SDS011;8842;51.244;7.102;2022-08-24T03:21:25;12.13;;;11.43;;
17449;SDS011;8842;51.244;7.102;2022-08-24T03:26:30;12.60;;;11.90;;
17449;SDS011;8842;51.244;7.102;2022-08-24T03:31:42;12.47;;;11.77;;
17449;SDS011;8842;51.244;7.102;2022-08-24T03:36:46;12.43;;;11.70;;
17449;SDS011;8842;51.244;7.102;2022-08-24T03:41:58;12.60;;;11.90;;
17449;SDS011;8842;51.244;7.102;2022-08-24T03:47:02;12.30;;;11.60;;
17449;SDS011;8842;51.244;7.102;2022-08-24T03:52:14;12.40;;;11.70;;
17449;SDS011;8842;51.244;7.102;2022-08-24T03:57:26;12.93;;;12.23;;
17449;SDS011;8842;51.244;7.102;2022-08-24T04:02:30;13.30;;;12.60;;
17449;SDS011;8842;51.244;7.102;2022-08-24T04:07:42;12.70;;;12.00;;
17449;SDS011;8842;51.244;7.102;2022-08-24T04:12:47;13.13;;;12.33;;
17449;SDS011;8842;51.244;7.102;2022-08-24T04:17:58;12.50;;;11.80;;
17449;SDS011;8842;51.244;7.102;2022-08-24T04:23:03;12.97;;;12.27;;
17449;SDS011;8842;51.244;7.102;2022-08-24T04:28:15;12.57;;;11.87;;
17449;SDS011;8842;51.244;7.102;2022-08-24T04:33:21;13.13;;;12.17;;
17449;SDS011;8842;51.244;7.102;2022-08-24T04:38:33;12.60;;;11.90;;
17449;SDS011;8842;51.244;7.102;2022-08-24T04:43:40;12.67;;;11.97;;
17449;SDS011;8842;51.244;7.102;2022-08-24T04:48:47;12.43;;;11.73;;
17449;SDS011;8842;51.244;7.102;2022-08-24T04:53:59;12.80;;;11.80;;
17449;SDS011;8842;51.244;7.102;2022-08-24T05:04:14;12.93;;;12.23;;
17449;SDS011;8842;51.244;7.102;2022-08-24T05:09:19;12.63;;;11.93;;
17449;SDS011;8842;51.244;7.102;2022-08-24T05:19:34;13.20;;;12.40;;
17449;SDS011;8842;51.244;7.102;2022-08-24T05:24:40;12.90;;;12.10;;
17449;SDS011;8842;51.244;7.102;2022-08-24T05:34:57;11.97;;;11.37;;
17449;SDS011;8842;51.244;7.102;2022-08-24T05:40:04;12.37;;;11.67;;
17449;SDS011;8842;51.244;7.102;2022-08-24T05:45:18;12.50;;;11.80;;
17449;SDS011;8842;51.244;7.102;2022-08-24T05:50:22;13.00;;;12.30;;
17449;SDS011;8842;51.244;7.102;2022-08-24T05:55:36;12.93;;;12.23;;
17449;SDS011;8842;51.244;7.102;2022-08-24T06:05:51;13.00;;;12.30;;
17449;SDS011;8842;51.244;7.102;2022-08-24T06:10:56;12.60;;;11.90;;
17449;SDS011;8842;51.244;7.102;2022-08-24T06:16:09;12.70;;;12.00;;
17449;SDS011;8842;51.244;7.102;2022-08-24T06:21:16;12.60;;;11.90;;
17449;SDS011;8842;51.244;7.102;2022-08-24T06:26:23;12.73;;;12.03;;
17449;SDS011;8842;51.244;7.102;2022-08-24T06:31:35;13.55;;;12.75;;
17449;SDS011;8842;51.244;7.102;2022-08-24T06:36:42;13.03;;;12.33;;
17449;SDS011;8842;51.244;7.102;2022-08-24T06:41:54;12.68;;;11.95;;
17449;SDS011;8842;51.244;7.102;2022-08-24T06:46:58;12.18;;;11.48;;
17449;SDS011;8842;51.244;7.102;2022-08-24T06:52:10;12.13;;;11.43;;
17449;SDS011;8842;51.244;7.102;2022-08-24T06:57:14;12.10;;;11.40;;
17449;SDS011;8842;51.244;7.102;2022-08-24T07:02:26;11.57;;;10.98;;
17449;SDS011;8842;51.244;7.102;2022-08-24T07:07:30;12.37;;;11.68;;
17449;SDS011;8842;51.244;7.102;2022-08-24T07:12:45;11.80;;;11.10;;
17449;SDS011;8842;51.244;7.102;2022-08-24T07:17:57;11.68;;;11.08;;
17449;SDS011;8842;51.244;7.102;2022-08-24T07:23:01;11.53;;;10.82;;
17449;SDS011;8842;51.244;7.102;2022-08-24T07:28:05;11.57;;;10.98;;
17449;SDS011;8842;51.244;7.102;2022-08-24T07:33:17;11.20;;;10.60;;
17449;SDS011;8842;51.244;7.102;2022-08-24T07:38:22;11.22;;;10.63;;
17449;SDS011;8842;51.244;7.102;2022-08-24T07:43:34;11.80;;;11.10;;
17449;SDS011;8842;51.244;7.102;2022-08-24T07:48:38;12.25;;;11.55;;
17449;SDS011;8842;51.244;7.102;2022-08-24T07:53:42;12.20;;;11.48;;
17449;SDS011;8842;51.244;7.102;2022-08-24T07:58:54;11.68;;;11.08;;
17449;SDS011;8842;51.244;7.102;2022-08-24T08:04:06;12.60;;;11.88;;
17449;SDS011;8842;51.244;7.102;2022-08-24T08:09:11;12.47;;;11.78;;
17449;SDS011;8842;51.244;7.102;2022-08-24T08:14:23;12.20;;;11.50;;
17449;SDS011;8842;51.244;7.102;2022-08-24T08:19:28;11.90;;;11.20;;
17449;SDS011;8842;51.244;7.102;2022-08-24T08:24:41;12.93;;;11.97;;
17449;SDS011;8842;51.244;7.102;2022-08-24T08:29:47;12.30;;;11.60;;
17449;SDS011;8842;51.244;7.102;2022-08-24T08:34:58;11.53;;;10.93;;
17449;SDS011;8842;51.244;7.102;2022-08-24T08:45:19;12.65;;;11.95;;
17449;SDS011;8842;51.244;7.102;2022-08-24T08:56:32;12.58;;;11.88;;
17449;SDS011;8842;51.244;7.102;2022-08-24T09:01:46;12.05;;;11.35;;
17449;SDS011;8842;51.244;7.102;2022-08-24T09:07:01;11.85;;;11.25;;
17449;SDS011;8842;51.244;7.102;2022-08-24T09:17:29;12.30;;;11.60;;
17449;SDS011;8842;51.244;7.102;2022-08-24T09:22:38;13.93;;;12.73;;
17449;SDS011;8842;51.244;7.102;2022-08-24T09:27:51;13.32;;;12.53;;
17449;SDS011;8842;51.244;7.102;2022-08-24T09:33:05;13.53;;;12.73;;
17449;SDS011;8842;51.244;7.102;2022-08-24T09:38:23;13.00;;;12.30;;
17449;SDS011;8842;51.244;7.102;2022-08-24T09:49:35;13.85;;;13.05;;
17449;SDS011;8842;51.244;7.102;2022-08-24T10:05:25;13.78;;;12.98;;
17449;SDS011;8842;51.244;7.102;2022-08-24T10:10:41;13.93;;;13.13;;
17449;SDS011;8842;51.244;7.102;2022-08-24T10:15:52;12.98;;;12.18;;
17449;SDS011;8842;51.244;7.102;2022-08-24T10:21:12;12.98;;;12.28;;
17449;SDS011;8842;51.244;7.102;2022-08-24T10:26:25;11.85;;;11.15;;
17449;SDS011;8842;51.244;7.102;2022-08-24T10:31:33;13.10;;;12.40;;
17449;SDS011;8842;51.244;7.102;2022-08-24T10:36:49;13.10;;;12.40;;
17449;SDS011;8842;51.244;7.102;2022-08-24T10:47:54;13.93;;;12.80;;
17449;SDS011;8842;51.244;7.102;2022-08-24T10:53:11;13.05;;;12.35;;
17449;SDS011;8842;51.244;7.102;2022-08-24T10:58:35;13.68;;;12.93;;
17449;SDS011;8842;51.244;7.102;2022-08-24T11:03:51;13.53;;;12.82;;
17449;SDS011;8842;51.244;7.102;2022-08-24T11:09:06;13.83;;;13.03;;
17449;SDS011;8842;51.244;7.102;2022-08-24T11:19:33;13.53;;;12.73;;
17449;SDS011;8842;51.244;7.102;2022-08-24T11:24:39;13.48;;;12.68;;
17449;SDS011;8842;51.244;7.102;2022-08-24T11:29:56;13.55;;;12.80;;
17449;SDS011;8842;51.244;7.102;2022-08-24T11:35:04;13.22;;;12.53;;
17449;SDS011;8842;51.244;7.102;2022-08-24T11:40:17;12.55;;;11.83;;
17449;SDS011;8842;51.244;7.102;2022-08-24T11:45:25;13.10;;;12.40;;
17449;SDS011;8842;51.244;7.102;2022-08-24T11:50:34;12.60;;;11.90;;
17449;SDS011;8842;51.244;7.102;2022-08-24T11:55:42;11.75;;;11.15;;
17449;SDS011;8842;51.244;7.102;2022-08-24T12:00:57;11.50;;;10.90;;
17449;SDS011;8842;51.244;7.102;2022-08-24T12:11:28;11.20;;;10.53;;
17449;SDS011;8842;51.244;7.102;2022-08-24T12:21:47;11.78;;;11.18;;
17449;SDS011;8842;51.244;7.102;2022-08-24T12:32:06;11.78;;;11.10;;
17449;SDS011;8842;51.244;7.102;2022-08-24T12:42:27;12.10;;;11.40;;
17449;SDS011;8842;51.244;7.102;2022-08-24T12:47:36;13.00;;;12.30;;
17449;SDS011;8842;51.244;7.102;2022-08-24T12:53:01;12.68;;;11.97;;
17449;SDS011;8842;51.244;7.102;2022-08-24T12:58:23;11.78;;;11.15;;
17449;SDS011;8842;51.244;7.102;2022-08-24T13:03:43;12.03;;;11.40;;
17449;SDS011;8842;51.244;7.102;2022-08-24T13:14:14;12.35;;;11.65;;
17449;SDS011;8842;51.244;7.102;2022-08-24T13:19:35;12.20;;;11.50;;
17449;SDS011;8842;51.244;7.102;2022-08-24T13:30:02;12.28;;;11.20;;
17449;SDS011;8842;51.244;7.102;2022-08-24T13:35:32;12.60;;;11.90;;
17449;SDS011;8842;51.244;7.102;2022-08-24T13:40:42;12.40;;;11.70;;
17449;SDS011;8842;51.244;7.102;2022-08-24T13:45:56;13.05;;;12.35;;
17449;SDS011;8842;51.244;7.102;2022-08-24T13:51:19;12.68;;;11.97;;
17449;SDS011;8842;51.244;7.102;2022-08-24T13:56:37;13.48;;;12.60;;
17449;SDS011;8842;51.244;7.102;2022-08-24T14:01:59;12.65;;;11.95;;
17449;SDS011;8842;51.244;7.102;2022-08-24T14:07:15;12.37;;;11.68;;
17449;SDS011;8842;51.244;7.102;2022-08-24T14:12:25;12.33;;;11.63;;
17449;SDS011;8842;51.244;7.102;2022-08-24T14:17:47;12.78;;;11.97;;
17449;SDS011;8842;51.244;7.102;2022-08-24T14:22:56;12.25;;;11.55;;
17449;SDS011;8842;51.244;7.102;2022-08-24T14:33:49;11.60;;;11.00;;
17449;SDS011;8842;51.244;7.102;2022-08-24T14:39:01;11.20;;;10.60;;
17449;SDS011;8842;51.244;7.102;2022-08-24T14:49:34;12.28;;;11.57;;
17449;SDS011;8842;51.244;7.102;2022-08-24T14:55:03;11.70;;;11.10;;
17449;SDS011;8842;51.244;7.102;2022-08-24T15:00:10;11.30;;;10.70;;
17449;SDS011;8842;51.244;7.102;2022-08-24T15:05:22;11.30;;;10.70;;
17449;SDS011;8842;51.244;7.102;2022-08-24T15:10:33;11.60;;;11.00;;
17449;SDS011;8842;51.244;7.102;2022-08-24T15:15:49;11.93;;;11.33;;
17449;SDS011;8842;51.244;7.102;2022-08-24T15:20:59;11.95;;;11.28;;
17449;SDS011;8842;51.244;7.102;2022-08-24T15:26:09;11.90;;;11.20;;
17449;SDS011;8842;51.244;7.102;2022-08-24T15:31:24;11.35;;;10.75;;
17449;SDS011;8842;51.244;7.102;2022-08-24T15:36:31;10.85;;;10.25;;
17449;SDS011;8842;51.244;7.102;2022-08-24T15:41:36;10.40;;;9.80;;
17449;SDS011;8842;51.244;7.102;2022-08-24T15:51:58;11.65;;;11.05;;
17449;SDS011;8842;51.244;7.102;2022-08-24T15:57:04;11.63;;;11.03;;
17449;SDS011;8842;51.244;7.102;2022-08-24T16:02:23;12.20;;;11.50;;
17449;SDS011;8842;51.244;7.102;2022-08-24T16:13:20;11.33;;;10.72;;
17449;SDS011;8842;51.244;7.102;2022-08-24T16:18:41;11.03;;;10.43;;
17449;SDS011;8842;51.244;7.102;2022-08-24T16:23:53;11.68;;;10.88;;
17449;SDS011;8842;51.244;7.102;2022-08-24T16:29:05;11.50;;;10.90;;
17449;SDS011;8842;51.244;7.102;2022-08-24T16:34:18;10.72;;;10.13;;
17449;SDS011;8842;51.244;7.102;2022-08-24T16:39:26;12.40;;;11.70;;
17449;SDS011;8842;51.244;7.102;2022-08-24T16:44:38;12.65;;;11.93;;
17449;SDS011;8842;51.244;7.102;2022-08-24T16:49:45;11.97;;;11.28;;
17449;SDS011;8842;51.244;7.102;2022-08-24T16:54:57;12.90;;;12.20;;
17449;SDS011;8842;51.244;7.102;2022-08-24T17:00:04;12.10;;;11.40;;
17449;SDS011;8842;51.244;7.102;2022-08-24T17:05:16;12.35;;;11.65;;
17449;SDS011;8842;51.244;7.102;2022-08-24T17:10:22;12.20;;;11.50;;
17449;SDS011;8842;51.244;7.102;2022-08-24T17:15:32;11.80;;;11.12;;
17449;SDS011;8842;51.244;7.102;2022-08-24T17:20:46;12.10;;;11.40;;
17449;SDS011;8842;51.244;7.102;2022-08-24T17:25:50;12.07;;;11.40;;
17449;SDS011;8842;51.244;7.102;2022-08-24T17:31:02;12.50;;;11.80;;
17449;SDS011;8842;51.244;7.102;2022-08-24T17:36:08;12.45;;;11.75;;
17449;SDS011;8842;51.244;7.102;2022-08-24T17:41:12;11.50;;;10.90;;
17449;SDS011;8842;51.244;7.102;2022-08-24T17:46:24;12.25;;;11.55;;
17449;SDS011;8842;51.244;7.102;2022-08-24T17:51:30;12.45;;;11.75;;
17449;SDS011;8842;51.244;7.102;2022-08-24T17:56:35;13.25;;;12.35;;
17449;SDS011;8842;51.244;7.102;2022-08-24T18:01:40;13.13;;;12.43;;
17449;SDS011;8842;51.244;7.102;2022-08-24T18:06:52;12.93;;;12.23;;
17449;SDS011;8842;51.244;7.102;2022-08-24T18:11:59;12.15;;;11.45;;
17449;SDS011;8842;51.244;7.102;2022-08-24T18:17:12;12.68;;;11.97;;
17449;SDS011;8842;51.244;7.102;2022-08-24T18:22:18;11.80;;;11.10;;
17449;SDS011;8842;51.244;7.102;2022-08-24T18:27:30;12.47;;;11.68;;
17449;SDS011;8842;51.244;7.102;2022-08-24T18:32:35;12.55;;;11.85;;
17449;SDS011;8842;51.244;7.102;2022-08-24T18:37:47;12.90;;;12.20;;
17449;SDS011;8842;51.244;7.102;2022-08-24T18:42:51;12.30;;;11.60;;
17449;SDS011;8842;51.244;7.102;2022-08-24T18:48:03;13.45;;;11.50;;
17449;SDS011;8842;51.244;7.102;2022-08-24T18:53:08;13.20;;;12.43;;
17449;SDS011;8842;51.244;7.102;2022-08-24T18:58:14;13.62;;;12.82;;
17449;SDS011;8842;51.244;7.102;2022-08-24T19:03:26;12.58;;;11.88;;
17449;SDS011;8842;51.244;7.102;2022-08-24T19:13:42;13.22;;;12.47;;
17449;SDS011;8842;51.244;7.102;2022-08-24T19:18:47;13.32;;;12.63;;
17449;SDS011;8842;51.244;7.102;2022-08-24T19:23:53;12.73;;;12.03;;
17449;SDS011;8842;51.244;7.102;2022-08-24T19:29:05;13.08;;;12.37;;
17449;SDS011;8842;51.244;7.102;2022-08-24T19:34:09;13.03;;;12.33;;
17449;SDS011;8842;51.244;7.102;2022-08-24T19:39:21;13.00;;;12.07;;
17449;SDS011;8842;51.244;7.102;2022-08-24T19:44:26;13.08;;;12.37;;
17449;SDS011;8842;51.244;7.102;2022-08-24T19:49:38;13.13;;;12.35;;
17449;SDS011;8842;51.244;7.102;2022-08-24T19:54:43;13.13;;;12.23;;
17449;SDS011;8842;51.244;7.102;2022-08-24T20:05:08;13.65;;;12.65;;
17449;SDS011;8842;51.244;7.102;2022-08-24T20:10:14;13.15;;;12.45;;
17449;SDS011;8842;51.244;7.102;2022-08-24T20:15:29;12.58;;;11.88;;
17449;SDS011;8842;51.244;7.102;2022-08-24T20:25:45;12.40;;;11.70;;
17449;SDS011;8842;51.244;7.102;2022-08-24T20:30:49;12.70;;;12.00;;
17449;SDS011;8842;51.244;7.102;2022-08-24T20:35:53;12.82;;;12.03;;
17449;SDS011;8842;51.244;7.102;2022-08-24T20:41:05;12.80;;;12.10;;
17449;SDS011;8842;51.244;7.102;2022-08-24T20:46:09;12.98;;;12.18;;
17449;SDS011;8842;51.244;7.102;2022-08-24T20:51:14;12.73;;;12.03;;
17449;SDS011;8842;51.244;7.102;2022-08-24T20:56:27;13.80;;;12.80;;
17449;SDS011;8842;51.244;7.102;2022-08-24T21:01:32;11.90;;;11.20;;
17449;SDS011;8842;51.244;7.102;2022-08-24T21:06:44;12.37;;;11.68;;
17449;SDS011;8842;51.244;7.102;2022-08-24T21:11:48;12.73;;;11.93;;
17449;SDS011;8842;51.244;7.102;2022-08-24T21:16:53;13.58;;;12.68;;
17449;SDS011;8842;51.244;7.102;2022-08-24T21:22:06;13.38;;;12.58;;
17449;SDS011;8842;51.244;7.102;2022-08-24T21:27:10;12.68;;;11.97;;
17449;SDS011;8842;51.244;7.102;2022-08-24T21:32:22;13.75;;;12.70;;
17449;SDS011;8842;51.244;7.102;2022-08-24T21:37:44;13.05;;;12.05;;
17449;SDS011;8842;51.244;7.102;2022-08-24T21:42:58;12.75;;;11.95;;
17449;SDS011;8842;51.244;7.102;2022-08-24T21:48:03;12.85;;;11.85;;
17449;SDS011;8842;51.244;7.102;2022-08-24T21:53:15;12.35;;;11.65;;
17449;SDS011;8842;51.244;7.102;2022-08-24T22:03:30;13.03;;;12.03;;
17449;SDS011;8842;51.244;7.102;2022-08-24T22:08:42;14.28;;;13.00;;
17449;SDS011;8842;51.244;7.102;2022-08-24T22:13:46;13.60;;;12.80;;
17449;SDS011;8842;51.244;7.102;2022-08-24T22:18:58;13.68;;;12.78;;
17449;SDS011;8842;51.244;7.102;2022-08-24T22:24:03;13.62;;;12.82;;
17449;SDS011;8842;51.244;7.102;2022-08-24T22:29:15;13.30;;;12.50;;
17449;SDS011;8842;51.244;7.102;2022-08-24T22:39:31;13.45;;;12.65;;
17449;SDS011;8842;51.244;7.102;2022-08-24T22:44:36;13.22;;;12.50;;
17449;SDS011;8842;51.244;7.102;2022-08-24T22:49:47;13.25;;;12.45;;
17449;SDS011;8842;51.244;7.102;2022-08-24T22:54:53;13.45;;;12.68;;
17449;SDS011;8842;51.244;7.102;2022-08-24T23:00:07;13.40;;;12.60;;
17449;SDS011;8842;51.244;7.102;2022-08-24T23:05:13;13.30;;;12.50;;
17449;SDS011;8842;51.244;7.102;2022-08-24T23:10:30;13.30;;;12.50;;
17449;SDS011;8842;51.244;7.102;2022-08-24T23:15:35;13.22;;;12.47;;
17449;SDS011;8842;51.244;7.102;2022-08-24T23:20:46;12.90;;;12.20;;
17449;SDS011;8842;51.244;7.102;2022-08-24T23:31:05;13.55;;;12.75;;
17449;SDS011;8842;51.244;7.102;2022-08-24T23:36:11;13.53;;;12.60;;
17449;SDS011;8842;51.244;7.102;2022-08-24T23:41:24;13.30;;;12.40;;
17449;SDS011;8842;51.244;7.102;2022-08-24T23:46:30;13.35;;;12.60;;
17449;SDS011;8842;51.244;7.102;2022-08-24T23:51:44;13.03;;;12.33;;
17449;SDS011;8842;51.244;7.102;2022-08-24T23:56:49;13.05;;;12.25;;
